createdAt,value
2023-04-24T00:00:46.289Z,12.97
2023-04-24T00:03:16.019Z,12.99
2023-04-24T00:05:44.936Z,13.01
2023-04-24T00:08:14.199Z,13.04
2023-04-24T00:10:42.606Z,12.95
2023-04-24T00:13:11.973Z,12.88
2023-04-24T00:15:40.399Z,13.04
2023-04-24T00:18:09.191Z,12.92
2023-04-24T00:20:40.032Z,12.94
2023-04-24T00:23:08.707Z,12.94
2023-04-24T00:25:37.237Z,12.94
2023-04-24T00:28:06.147Z,12.92
2023-04-24T00:30:34.554Z,12.85
2023-04-24T00:33:03.007Z,12.81
2023-04-24T00:35:32.030Z,12.90
2023-04-24T00:38:02.049Z,12.89
2023-04-24T00:40:31.440Z,12.73
2023-04-24T00:42:59.772Z,12.72
2023-04-24T00:45:27.932Z,12.73
2023-04-24T00:47:56.879Z,12.76
2023-04-24T00:50:26.594Z,12.67
2023-04-24T00:52:55.094Z,12.74
2023-04-24T00:55:25.689Z,12.72
2023-04-24T00:57:54.222Z,12.69
2023-04-24T01:00:23.495Z,12.67
2023-04-24T01:02:54.825Z,12.60
2023-04-24T01:05:23.217Z,12.49
2023-04-24T01:07:52.018Z,12.38
2023-04-24T01:10:22.160Z,12.38
2023-04-24T01:12:53.147Z,12.22
2023-04-24T01:15:21.772Z,12.41
2023-04-24T01:17:51.573Z,12.34
2023-04-24T01:20:20.503Z,12.32
2023-04-24T01:22:50.901Z,12.30
2023-04-24T01:25:19.352Z,12.32
2023-04-24T01:27:47.824Z,12.37
2023-04-24T01:30:17.280Z,12.37
2023-04-24T01:32:46.997Z,12.35
2023-04-24T01:35:15.635Z,12.34
2023-04-24T01:37:44.649Z,12.19
2023-04-24T01:40:14.849Z,12.25
2023-04-24T01:42:44.572Z,12.22
2023-04-24T01:45:13.824Z,12.19
2023-04-24T01:47:42.095Z,12.26
2023-04-24T01:50:12.180Z,12.15
2023-04-24T01:52:40.442Z,12.00
2023-04-24T01:55:09.857Z,12.09
2023-04-24T01:57:39.945Z,11.97
2023-04-24T02:00:09.568Z,11.85
2023-04-24T02:02:38.263Z,11.88
2023-04-24T02:05:09.807Z,11.97
2023-04-24T02:07:38.276Z,11.97
2023-04-24T02:10:07.672Z,11.96
2023-04-24T02:12:36.813Z,12.00
2023-04-24T02:15:07.671Z,11.87
2023-04-24T02:17:36.643Z,11.88
2023-04-24T02:20:05.800Z,11.70
2023-04-24T02:22:34.178Z,11.60
2023-04-24T02:25:03.259Z,11.62
2023-04-24T02:27:31.355Z,11.49
2023-04-24T02:29:59.867Z,11.39
2023-04-24T02:32:29.878Z,11.53
2023-04-24T02:34:57.999Z,11.62
2023-04-24T02:37:26.314Z,11.57
2023-04-24T02:39:55.011Z,11.70
2023-04-24T02:42:23.370Z,11.97
2023-04-24T02:44:52.414Z,11.99
2023-04-24T02:47:21.356Z,12.04
2023-04-24T02:49:50.799Z,11.96
2023-04-24T02:52:19.344Z,12.07
2023-04-24T02:54:48.240Z,12.07
2023-04-24T02:57:16.817Z,11.93
2023-04-24T02:59:45.504Z,11.81
2023-04-24T03:02:14.175Z,12.06
2023-04-24T03:04:44.124Z,11.95
2023-04-24T03:07:15.509Z,11.80
2023-04-24T03:09:51.116Z,11.65
2023-04-24T03:12:20.185Z,11.66
2023-04-24T03:14:48.226Z,11.71
2023-04-24T03:17:16.325Z,11.77
2023-04-24T03:19:45.067Z,11.90
2023-04-24T03:22:14.736Z,11.87
2023-04-24T03:24:43.209Z,11.81
2023-04-24T03:27:10.986Z,11.95
2023-04-24T03:29:39.301Z,11.94
2023-04-24T03:32:07.214Z,11.91
2023-04-24T03:34:35.946Z,11.91
2023-04-24T03:37:04.466Z,11.68
2023-04-24T03:39:33.689Z,11.74
2023-04-24T03:42:02.268Z,11.68
2023-04-24T03:44:30.462Z,11.82
2023-04-24T03:47:00.332Z,12.00
2023-04-24T03:49:28.941Z,11.89
2023-04-24T03:51:56.809Z,11.79
2023-04-24T03:54:24.780Z,11.71
2023-04-24T03:56:56.073Z,11.89
2023-04-24T03:59:24.963Z,12.09
2023-04-24T04:01:53.668Z,12.03
2023-04-24T04:04:22.431Z,12.11
2023-04-24T04:06:50.730Z,12.00
2023-04-24T04:09:19.615Z,11.88
2023-04-24T04:11:48.496Z,11.93
2023-04-24T04:14:17.866Z,11.89
2023-04-24T04:16:45.851Z,11.81
2023-04-24T04:19:15.965Z,12.13
2023-04-24T04:21:43.860Z,12.18
2023-04-24T04:24:11.849Z,12.31
2023-04-24T04:26:40.676Z,12.34
2023-04-24T04:29:08.939Z,12.07
2023-04-24T04:31:38.519Z,12.12
2023-04-24T04:34:07.358Z,11.92
2023-04-24T04:36:37.836Z,12.14
2023-04-24T04:39:06.762Z,12.37
2023-04-24T04:41:36.792Z,12.45
2023-04-24T04:44:05.848Z,12.52
2023-04-24T04:46:35.396Z,12.47
2023-04-24T04:49:05.517Z,12.57
2023-04-24T04:51:33.475Z,12.59
2023-04-24T04:54:02.457Z,12.55
2023-04-24T04:56:30.846Z,12.53
2023-04-24T04:59:00.048Z,12.54
2023-04-24T05:01:29.060Z,12.47
2023-04-24T05:03:57.875Z,12.60
2023-04-24T05:06:27.280Z,12.58
2023-04-24T05:08:58.643Z,12.84
2023-04-24T05:11:27.259Z,12.81
2023-04-24T05:13:55.516Z,12.86
2023-04-24T05:16:24.641Z,12.90
2023-04-24T05:18:53.278Z,12.78
2023-04-24T05:21:22.426Z,12.97
2023-04-24T05:23:52.076Z,13.03
2023-04-24T05:26:20.541Z,13.10
2023-04-24T05:28:49.343Z,13.08
2023-04-24T05:31:18.961Z,13.14
2023-04-24T05:33:47.258Z,13.09
2023-04-24T05:36:16.418Z,13.15
2023-04-24T05:38:44.664Z,13.34
2023-04-24T05:41:14.389Z,13.67
2023-04-24T05:43:43.337Z,14.18
2023-04-24T05:46:11.559Z,14.07
2023-04-24T05:48:40.155Z,14.47
2023-04-24T05:51:09.111Z,14.87
2023-04-24T05:53:37.785Z,14.77
2023-04-24T05:56:06.368Z,14.77
2023-04-24T05:58:37.100Z,15.17
2023-04-24T06:01:09.682Z,15.34
2023-04-24T06:03:39.682Z,15.46
2023-04-24T06:06:09.400Z,15.45
2023-04-24T06:08:38.505Z,15.53
2023-04-24T06:11:06.772Z,15.96
2023-04-24T06:13:37.093Z,16.41
2023-04-24T06:16:06.297Z,16.75
2023-04-24T06:18:34.873Z,16.62
2023-04-24T06:21:03.070Z,16.82
2023-04-24T06:23:33.958Z,17.25
2023-04-24T06:26:02.694Z,16.96
2023-04-24T06:28:30.716Z,17.02
2023-04-24T06:31:01.265Z,17.14
2023-04-24T06:33:29.824Z,17.99
2023-04-24T06:35:58.719Z,18.29
2023-04-24T06:38:26.824Z,18.39
2023-04-24T06:40:55.540Z,18.37
2023-04-24T06:43:26.176Z,18.10
2023-04-24T06:45:54.355Z,17.87
2023-04-24T06:48:24.022Z,18.06
2023-04-24T06:50:53.185Z,17.51
2023-04-24T06:53:21.728Z,17.52
2023-04-24T06:55:50.285Z,17.00
2023-04-24T06:58:19.271Z,16.68
2023-04-24T07:00:47.958Z,16.98
2023-04-24T07:03:16.242Z,16.49
2023-04-24T07:05:47.857Z,16.19
2023-04-24T07:08:18.123Z,15.52
2023-04-24T07:10:46.912Z,15.22
2023-04-24T07:13:15.328Z,14.86
2023-04-24T07:15:44.140Z,14.89
2023-04-24T07:18:13.013Z,14.70
2023-04-24T07:20:41.493Z,14.56
2023-04-24T07:23:11.072Z,14.68
2023-04-24T07:25:40.502Z,14.86
2023-04-24T07:28:09.278Z,15.14
2023-04-24T07:30:37.500Z,15.50
2023-04-24T07:33:06.283Z,15.83
2023-04-24T07:35:36.215Z,16.71
2023-04-24T07:38:04.587Z,16.64
2023-04-24T07:40:34.461Z,17.53
2023-04-24T07:43:06.176Z,17.73
2023-04-24T07:45:37.331Z,18.95
2023-04-24T07:48:06.627Z,19.47
2023-04-24T07:50:35.888Z,20.14
2023-04-24T07:53:04.645Z,19.45
2023-04-24T07:55:35.406Z,20.34
2023-04-24T07:58:04.387Z,20.11
2023-04-24T08:00:32.817Z,19.81
2023-04-24T08:03:02.425Z,18.32
2023-04-24T08:05:31.394Z,18.32
2023-04-24T08:07:59.508Z,17.21
2023-04-24T08:10:28.336Z,17.21
2023-04-24T08:12:58.116Z,16.98
2023-04-24T08:15:26.897Z,18.82
2023-04-24T08:17:57.222Z,19.56
2023-04-24T08:20:27.555Z,21.58
2023-04-24T08:22:56.757Z,21.03
2023-04-24T08:25:26.565Z,21.03
2023-04-24T08:27:55.824Z,21.01
2023-04-24T08:30:27.032Z,19.56
2023-04-24T08:32:56.136Z,19.40
2023-04-24T08:35:24.782Z,19.84
2023-04-24T08:37:56.235Z,19.66
2023-04-24T08:40:32.014Z,19.70
2023-04-24T08:43:01.921Z,20.19
2023-04-24T08:45:31.719Z,19.82
2023-04-24T08:48:00.652Z,21.27
2023-04-24T08:50:32.482Z,21.13
2023-04-24T08:53:03.430Z,21.53
2023-04-24T08:55:36.116Z,21.51
2023-04-24T08:58:05.615Z,21.59
2023-04-24T09:00:48.215Z,22.19
2023-04-24T09:03:18.536Z,23.07
2023-04-24T09:05:51.348Z,22.61
2023-04-24T09:08:21.906Z,23.34
2023-04-24T09:10:51.276Z,21.94
2023-04-24T09:13:21.978Z,22.85
2023-04-24T09:15:52.229Z,23.78
2023-04-24T09:18:22.585Z,23.77
2023-04-24T09:21:01.290Z,23.14
2023-04-24T09:23:31.040Z,22.22
2023-04-24T09:26:01.109Z,21.74
2023-04-24T09:28:32.830Z,20.47
2023-04-24T09:31:10.937Z,20.27
2023-04-24T09:33:39.777Z,19.56
2023-04-24T09:36:08.502Z,19.45
2023-04-24T09:38:37.731Z,18.66
2023-04-24T09:41:08.817Z,18.40
2023-04-24T09:43:37.849Z,18.12
2023-04-24T09:46:11.639Z,18.82
2023-04-24T09:48:40.146Z,19.58
2023-04-24T09:51:12.220Z,20.79
2023-04-24T09:53:41.487Z,20.50
2023-04-24T09:56:14.103Z,20.35
2023-04-24T09:58:42.250Z,19.95
2023-04-24T10:01:11.725Z,20.95
2023-04-24T10:03:40.265Z,21.25
2023-04-24T10:06:11.161Z,20.92
2023-04-24T10:08:40.169Z,21.25
2023-04-24T10:11:12.516Z,21.20
2023-04-24T10:13:42.729Z,20.23
2023-04-24T10:16:14.309Z,20.00
2023-04-24T10:18:43.301Z,19.84
2023-04-24T10:21:12.296Z,19.28
2023-04-24T10:23:42.842Z,20.06
2023-04-24T10:26:13.193Z,20.30
2023-04-24T10:28:43.981Z,20.08
2023-04-24T10:31:15.067Z,20.06
2023-04-24T10:33:45.387Z,20.35
2023-04-24T10:36:16.091Z,19.69
2023-04-24T10:38:50.320Z,19.53
2023-04-24T10:41:24.505Z,19.01
2023-04-24T10:44:07.758Z,19.11
2023-04-24T10:46:39.504Z,20.00
2023-04-24T10:49:10.133Z,19.86
2023-04-24T10:51:49.841Z,19.91
2023-04-24T10:54:32.182Z,20.02
2023-04-24T10:57:30.427Z,19.71
2023-04-24T11:00:21.153Z,20.25
2023-04-24T11:02:54.014Z,20.97
2023-04-24T11:05:24.799Z,20.49
2023-04-24T11:08:15.605Z,19.57
2023-04-24T11:10:47.444Z,18.57
2023-04-24T11:13:18.555Z,19.11
2023-04-24T11:15:47.713Z,18.40
2023-04-24T11:18:18.024Z,17.25
2023-04-24T11:20:47.114Z,17.15
2023-04-24T11:23:16.192Z,18.04
2023-04-24T11:25:44.891Z,18.99
2023-04-24T11:28:18.965Z,20.07
2023-04-24T11:30:47.191Z,20.14
2023-04-24T11:33:24.148Z,21.05
2023-04-24T11:36:00.336Z,20.75
2023-04-24T11:38:35.878Z,21.08
2023-04-24T11:41:06.809Z,22.49
2023-04-24T11:43:36.675Z,21.37
2023-04-24T11:46:06.456Z,22.48
2023-04-24T11:48:41.681Z,23.30
2023-04-24T11:51:09.941Z,22.46
2023-04-24T11:53:39.863Z,22.76
2023-04-24T11:56:08.814Z,22.81
2023-04-24T11:58:37.732Z,22.61
2023-04-24T12:01:06.995Z,23.20
2023-04-24T12:03:35.822Z,23.31
2023-04-24T12:06:13.090Z,22.75
2023-04-24T12:08:42.163Z,22.46
2023-04-24T12:11:10.820Z,22.91
2023-04-24T12:13:39.057Z,22.13
2023-04-24T12:16:07.917Z,21.95
2023-04-24T12:18:36.246Z,20.57
2023-04-24T12:21:31.920Z,20.60
2023-04-24T12:24:00.518Z,20.66
2023-04-24T12:26:30.138Z,19.41
2023-04-24T12:29:04.033Z,19.27
2023-04-24T12:31:33.315Z,18.93
2023-04-24T12:34:01.474Z,18.26
2023-04-24T12:36:31.328Z,19.15
2023-04-24T12:38:59.695Z,18.90
2023-04-24T12:41:28.456Z,18.96
2023-04-24T12:43:57.494Z,20.63
2023-04-24T12:46:25.742Z,20.93
2023-04-24T12:48:54.220Z,20.98
2023-04-24T12:51:23.024Z,20.60
2023-04-24T12:53:55.414Z,20.81
2023-04-24T12:56:25.286Z,21.08
2023-04-24T12:58:53.520Z,20.38
2023-04-24T13:01:22.184Z,20.16
2023-04-24T13:03:51.073Z,19.43
2023-04-24T13:06:19.304Z,19.49
2023-04-24T13:08:48.342Z,19.08
2023-04-24T13:11:18.332Z,18.84
2023-04-24T13:13:46.534Z,18.07
2023-04-24T13:16:14.546Z,18.48
2023-04-24T13:18:43.063Z,19.31
2023-04-24T13:21:11.188Z,18.95
2023-04-24T13:23:39.542Z,19.08
2023-04-24T13:26:08.657Z,18.76
2023-04-24T13:28:39.388Z,18.00
2023-04-24T13:31:08.616Z,18.78
2023-04-24T13:33:37.110Z,18.80
2023-04-24T13:36:05.440Z,18.79
2023-04-24T13:38:34.040Z,18.16
2023-04-24T13:41:03.020Z,18.39
2023-04-24T13:43:31.148Z,18.66
2023-04-24T13:46:03.479Z,18.42
2023-04-24T13:48:34.641Z,19.12
2023-04-24T13:51:03.814Z,19.01
2023-04-24T13:53:32.031Z,19.77
2023-04-24T13:56:00.291Z,19.72
2023-04-24T13:58:29.110Z,20.05
2023-04-24T14:00:57.783Z,19.71
2023-04-24T14:03:27.483Z,20.63
2023-04-24T14:05:56.324Z,20.12
2023-04-24T14:08:24.850Z,20.08
2023-04-24T14:10:53.087Z,19.31
2023-04-24T14:13:22.384Z,19.17
2023-04-24T14:15:50.508Z,19.30
2023-04-24T14:18:18.765Z,19.13
2023-04-24T14:20:48.760Z,19.30
2023-04-24T14:23:18.511Z,19.41
2023-04-24T14:25:47.040Z,19.42
2023-04-24T14:28:15.728Z,19.25
2023-04-24T14:30:44.413Z,19.14
2023-04-24T14:33:22.096Z,19.23
2023-04-24T14:35:53.138Z,18.72
2023-04-24T14:38:24.168Z,18.45
2023-04-24T14:43:30.652Z,17.90
2023-04-24T14:46:00.891Z,18.68
2023-04-24T14:48:37.377Z,18.43
2023-04-24T14:51:09.612Z,18.49
2023-04-24T14:57:26.258Z,17.41
2023-04-24T14:59:56.466Z,16.60
2023-04-24T15:02:25.305Z,15.93
2023-04-24T15:04:54.673Z,15.20
2023-04-24T15:07:27.199Z,14.44
2023-04-24T15:09:56.202Z,13.65
2023-04-24T15:12:24.252Z,13.07
2023-04-24T15:14:52.514Z,12.91
2023-04-24T15:17:21.390Z,12.66
2023-04-24T15:19:49.735Z,12.64
2023-04-24T15:22:18.169Z,12.78
2023-04-24T15:24:48.024Z,12.95
2023-04-24T15:27:16.165Z,13.40
2023-04-24T15:29:44.459Z,13.35
2023-04-24T15:32:13.601Z,13.50
2023-04-24T15:34:41.787Z,13.82
2023-04-24T15:37:10.083Z,13.84
2023-04-24T15:39:39.762Z,13.98
2023-04-24T15:42:09.823Z,14.33
2023-04-24T15:44:38.953Z,14.62
2023-04-24T15:47:07.305Z,15.00
2023-04-24T15:49:36.054Z,15.27
2023-04-24T15:52:04.835Z,15.31
2023-04-24T15:54:33.693Z,15.02
2023-04-24T15:57:02.061Z,14.95
2023-04-24T15:59:33.727Z,14.92
2023-04-24T16:02:02.601Z,14.64
2023-04-24T16:04:30.986Z,14.94
2023-04-24T16:07:00.207Z,15.02
2023-04-24T16:09:28.601Z,15.26
2023-04-24T16:11:56.851Z,14.92
2023-04-24T16:14:26.254Z,15.09
2023-04-24T16:16:56.697Z,14.96
2023-04-24T16:19:25.144Z,14.79
2023-04-24T16:21:55.929Z,14.59
2023-04-24T16:24:24.774Z,14.27
2023-04-24T16:26:54.713Z,13.48
2023-04-24T16:29:23.017Z,13.35
2023-04-24T16:31:52.272Z,13.37
2023-04-24T16:34:22.421Z,13.19
2023-04-24T16:36:51.228Z,13.20
2023-04-24T16:39:19.640Z,13.49
2023-04-24T16:41:49.772Z,13.58
2023-04-24T16:44:19.729Z,13.63
2023-04-24T16:46:48.225Z,13.48
2023-04-24T16:49:16.360Z,13.61
2023-04-24T16:51:46.502Z,13.65
2023-04-24T16:54:14.677Z,13.73
2023-04-24T16:56:42.959Z,13.86
2023-04-24T16:59:11.661Z,14.00
2023-04-24T17:01:39.902Z,13.95
2023-04-24T17:04:08.161Z,13.63
2023-04-24T17:06:37.159Z,13.65
2023-04-24T17:09:06.502Z,13.56
2023-04-24T17:11:34.914Z,13.57
2023-04-24T17:14:03.613Z,13.71
2023-04-24T17:16:31.559Z,13.53
2023-04-24T17:18:59.770Z,13.54
2023-04-24T17:21:28.511Z,13.53
2023-04-24T17:23:56.535Z,13.38
2023-04-24T17:26:25.935Z,13.45
2023-04-24T17:28:55.810Z,13.22
2023-04-24T17:31:24.079Z,12.78
2023-04-24T17:33:52.540Z,12.69
2023-04-24T17:36:21.243Z,13.04
2023-04-24T17:38:49.932Z,13.01
2023-04-24T17:41:18.657Z,12.92
2023-04-24T17:43:48.466Z,12.93
2023-04-24T17:46:16.610Z,12.94
2023-04-24T17:48:46.180Z,12.81
2023-04-24T17:51:15.996Z,12.81
2023-04-24T17:53:44.794Z,12.18
2023-04-24T17:56:13.213Z,11.66
2023-04-24T17:58:42.064Z,11.40
2023-04-24T18:01:11.886Z,11.28
2023-04-24T18:03:40.141Z,10.91
2023-04-24T18:06:10.985Z,10.78
2023-04-24T18:08:39.280Z,10.91
2023-04-24T18:11:07.728Z,11.07
2023-04-24T18:13:35.894Z,11.02
2023-04-24T18:16:04.306Z,11.26
2023-04-24T18:18:34.259Z,11.44
2023-04-24T18:21:03.301Z,11.30
2023-04-24T18:23:31.648Z,11.40
2023-04-24T18:26:00.065Z,11.48
2023-04-24T18:28:31.375Z,11.64
2023-04-24T18:31:00.756Z,11.53
2023-04-24T18:33:28.759Z,11.53
2023-04-24T18:35:58.456Z,11.80
2023-04-24T18:38:27.569Z,11.72
2023-04-24T18:40:55.746Z,11.63
2023-04-24T18:43:23.708Z,11.54
2023-04-24T18:45:52.424Z,11.58
2023-04-24T18:48:20.536Z,11.60
2023-04-24T18:50:48.664Z,11.58
2023-04-24T18:53:18.854Z,11.43
2023-04-24T18:55:46.971Z,11.32
2023-04-24T18:58:15.068Z,11.34
2023-04-24T19:00:43.945Z,11.38
2023-04-24T19:03:12.301Z,11.29
2023-04-24T19:05:40.692Z,11.15
2023-04-24T19:08:09.267Z,10.80
2023-04-24T19:10:38.646Z,10.69
2023-04-24T19:13:06.947Z,10.60
2023-04-24T19:15:35.643Z,10.45
2023-04-24T19:18:04.044Z,10.36
2023-04-24T19:20:32.132Z,10.19
2023-04-24T19:23:00.585Z,10.24
2023-04-24T19:25:28.785Z,10.10
2023-04-24T19:27:58.235Z,9.92
2023-04-24T19:30:26.649Z,9.75
2023-04-24T19:32:55.088Z,9.75
2023-04-24T19:35:23.489Z,9.63
2023-04-24T19:37:52.088Z,9.65
2023-04-24T19:40:20.915Z,9.69
2023-04-24T19:42:49.653Z,9.73
2023-04-24T19:45:19.476Z,9.87
2023-04-24T19:47:47.930Z,10.09
2023-04-24T19:50:16.963Z,10.10
2023-04-24T19:52:45.802Z,10.11
2023-04-24T19:55:14.353Z,10.06
2023-04-24T19:57:42.532Z,9.91
2023-04-24T20:00:12.360Z,9.68
2023-04-24T20:02:42.641Z,9.36
2023-04-24T20:05:11.792Z,9.30
2023-04-24T20:07:40.564Z,9.39
2023-04-24T20:10:09.760Z,9.20
2023-04-24T20:12:37.836Z,9.61
2023-04-24T20:15:07.094Z,9.72
2023-04-24T20:17:35.242Z,9.92
2023-04-24T20:20:05.025Z,10.13
2023-04-24T20:22:39.232Z,10.14
2023-04-24T20:25:08.821Z,10.09
2023-04-24T20:27:37.580Z,10.16
2023-04-24T20:30:06.966Z,10.11
2023-04-24T20:32:35.831Z,9.89
2023-04-24T20:35:05.856Z,9.62
2023-04-24T20:37:34.794Z,9.53
2023-04-24T20:40:05.579Z,9.52
2023-04-24T20:42:33.701Z,9.44
2023-04-24T20:45:02.932Z,9.35
2023-04-24T20:47:31.625Z,9.36
2023-04-24T20:50:02.406Z,9.43
2023-04-24T20:52:31.816Z,9.46
2023-04-24T20:54:59.946Z,9.57
2023-04-24T20:57:28.505Z,9.72
2023-04-24T20:59:56.832Z,9.87
2023-04-24T21:02:25.066Z,10.21
2023-04-24T21:04:53.809Z,10.24
2023-04-24T21:07:21.968Z,10.36
2023-04-24T21:09:51.777Z,10.25
2023-04-24T21:12:20.378Z,10.50
2023-04-24T21:14:50.939Z,10.31
2023-04-24T21:17:19.295Z,10.55
2023-04-24T21:19:48.687Z,10.34
2023-04-24T21:22:16.811Z,10.39
2023-04-24T21:24:44.868Z,10.46
2023-04-24T21:27:15.110Z,10.40
2023-04-24T21:29:43.576Z,10.51
2023-04-24T21:32:11.810Z,10.37
2023-04-24T21:34:40.144Z,10.41
2023-04-24T21:37:08.131Z,10.19
2023-04-24T21:39:36.319Z,10.15
2023-04-24T21:42:05.130Z,10.07
2023-04-24T21:44:34.703Z,9.88
2023-04-24T21:47:02.708Z,9.88
2023-04-24T21:49:31.141Z,9.93
2023-04-24T21:51:59.022Z,9.87
2023-04-24T21:54:27.088Z,9.96
2023-04-24T21:56:55.592Z,9.95
2023-04-24T21:59:24.747Z,9.82
2023-04-24T22:01:54.107Z,9.66
2023-04-24T22:04:23.456Z,9.57
2023-04-24T22:06:53.369Z,9.67
2023-04-24T22:09:21.614Z,9.72
2023-04-24T22:11:50.926Z,9.81
2023-04-24T22:14:19.183Z,9.93
2023-04-24T22:16:47.849Z,10.09
2023-04-24T22:19:18.169Z,10.11
2023-04-24T22:21:46.804Z,10.10
2023-04-24T22:24:15.210Z,10.09
2023-04-24T22:26:44.396Z,9.88
2023-04-24T22:29:12.994Z,10.15
2023-04-24T22:31:42.029Z,10.08
2023-04-24T22:34:10.286Z,10.01
2023-04-24T22:36:39.862Z,10.02
2023-04-24T22:39:08.869Z,9.95
2023-04-24T22:41:36.972Z,9.97
2023-04-24T22:44:05.315Z,10.04
2023-04-24T22:46:33.999Z,10.15
2023-04-24T22:49:02.708Z,9.97
2023-04-24T22:51:34.187Z,10.09
2023-04-24T22:54:06.020Z,10.20
2023-04-24T22:56:36.399Z,10.51
2023-04-24T22:59:05.097Z,10.40
2023-04-24T23:01:33.284Z,10.30
2023-04-24T23:04:01.832Z,10.37
2023-04-24T23:06:30.911Z,10.30
2023-04-24T23:08:59.562Z,10.48
2023-04-24T23:11:29.723Z,10.33
2023-04-24T23:13:58.018Z,10.56
2023-04-24T23:16:26.363Z,10.59
2023-04-24T23:18:55.390Z,10.47
2023-04-24T23:21:23.853Z,10.48
2023-04-24T23:23:52.853Z,10.49
2023-04-24T23:26:21.614Z,10.46
2023-04-24T23:28:51.219Z,10.38
2023-04-24T23:31:19.350Z,10.33
2023-04-24T23:33:48.246Z,10.39
2023-04-24T23:36:17.140Z,10.36
2023-04-24T23:38:50.047Z,10.46
2023-04-24T23:41:18.939Z,10.53
2023-04-24T23:43:47.611Z,10.37
2023-04-24T23:46:17.274Z,10.64
2023-04-24T23:48:45.213Z,10.38
2023-04-24T23:51:13.754Z,10.44
2023-04-24T23:53:42.047Z,10.41
2023-04-24T23:56:10.395Z,10.44
2023-04-24T23:58:39.203Z,10.55
